createdAt,value
2022-10-07T00:01:06.844Z,3.20
2022-10-07T00:03:35.080Z,3.13
2022-10-07T00:06:05.218Z,3.00
2022-10-07T00:08:33.521Z,3.20
2022-10-07T00:11:06.082Z,3.20
2022-10-07T00:13:36.484Z,3.20
2022-10-07T00:16:07.477Z,3.00
2022-10-07T00:18:36.130Z,3.07
2022-10-07T00:21:05.629Z,3.20
2022-10-07T00:23:33.599Z,3.20
2022-10-07T00:26:02.507Z,3.60
2022-10-07T00:28:30.849Z,3.07
2022-10-07T00:30:59.502Z,2.97
2022-10-07T00:33:32.099Z,3.00
2022-10-07T00:35:59.961Z,3.10
2022-10-07T00:38:27.843Z,2.60
2022-10-07T00:40:55.607Z,2.97
2022-10-07T00:43:26.292Z,3.10
2022-10-07T00:45:57.515Z,3.07
2022-10-07T00:48:36.131Z,3.00
2022-10-07T00:51:04.532Z,3.03
2022-10-07T00:53:37.081Z,3.00
2022-10-07T00:56:06.874Z,3.07
2022-10-07T00:58:36.701Z,3.20
2022-10-07T01:01:08.091Z,3.00
2022-10-07T01:03:38.072Z,3.00
2022-10-07T01:06:06.724Z,3.00
2022-10-07T01:08:34.859Z,2.73
2022-10-07T01:11:14.776Z,3.50
2022-10-07T01:13:55.557Z,3.10
2022-10-07T01:16:30.631Z,3.17
2022-10-07T01:19:10.950Z,3.70
2022-10-07T01:21:47.104Z,3.20
2022-10-07T01:24:28.143Z,3.30
2022-10-07T01:27:04.928Z,3.30
2022-10-07T01:29:39.178Z,3.47
2022-10-07T01:32:13.994Z,3.10
2022-10-07T01:34:44.148Z,2.80
2022-10-07T01:37:17.180Z,3.23
2022-10-07T01:39:48.807Z,2.87
2022-10-07T01:42:18.519Z,3.20
2022-10-07T01:44:49.454Z,3.03
2022-10-07T01:47:18.105Z,3.13
2022-10-07T01:49:46.482Z,2.90
2022-10-07T01:52:36.207Z,3.00
2022-10-07T01:55:20.232Z,3.07
2022-10-07T01:57:57.768Z,2.77
2022-10-07T02:00:28.191Z,3.10
2022-10-07T02:03:12.245Z,2.67
2022-10-07T02:05:52.638Z,3.00
2022-10-07T02:08:34.796Z,2.70
2022-10-07T02:11:13.925Z,3.10
2022-10-07T02:13:57.871Z,2.80
2022-10-07T02:16:32.635Z,3.00
2022-10-07T02:19:05.518Z,3.63
2022-10-07T02:21:35.811Z,2.90
2022-10-07T02:24:05.335Z,2.90
2022-10-07T02:26:35.066Z,2.90
2022-10-07T02:29:07.931Z,2.67
2022-10-07T02:31:38.635Z,2.70
2022-10-07T02:34:08.783Z,2.57
2022-10-07T02:36:41.829Z,2.97
2022-10-07T02:39:09.828Z,2.70
2022-10-07T02:41:45.644Z,2.80
2022-10-07T02:44:26.778Z,2.60
2022-10-07T02:47:02.629Z,2.80
2022-10-07T02:49:32.201Z,2.73
2022-10-07T02:52:05.319Z,3.07
2022-10-07T02:54:42.692Z,2.80
2022-10-07T02:57:13.961Z,3.07
2022-10-07T02:59:45.221Z,3.10
2022-10-07T03:02:17.883Z,2.60
2022-10-07T03:04:46.163Z,3.53
2022-10-07T03:07:14.080Z,2.90
2022-10-07T03:09:42.813Z,2.73
2022-10-07T03:12:12.551Z,2.90
2022-10-07T03:14:41.111Z,3.33
2022-10-07T03:17:11.324Z,3.07
2022-10-07T03:19:39.096Z,2.80
2022-10-07T03:22:07.017Z,2.60
2022-10-07T03:24:37.681Z,2.83
2022-10-07T03:27:08.949Z,3.00
2022-10-07T03:29:41.940Z,3.30
2022-10-07T03:32:11.500Z,3.33
2022-10-07T03:34:39.357Z,3.50
2022-10-07T03:37:07.877Z,3.47
2022-10-07T03:39:35.716Z,2.90
2022-10-07T03:42:03.494Z,2.87
2022-10-07T03:44:32.070Z,2.80
2022-10-07T03:47:00.412Z,2.90
2022-10-07T03:49:30.162Z,2.93
2022-10-07T03:51:59.370Z,3.17
2022-10-07T03:54:28.429Z,3.00
2022-10-07T03:56:56.209Z,3.07
2022-10-07T03:59:24.001Z,3.23
2022-10-07T04:01:51.764Z,3.17
2022-10-07T04:04:20.619Z,3.53
2022-10-07T04:06:50.395Z,3.10
2022-10-07T04:09:18.228Z,3.80
2022-10-07T04:11:45.980Z,3.20
2022-10-07T04:14:13.886Z,3.60
2022-10-07T04:16:42.694Z,3.80
2022-10-07T04:19:13.693Z,3.30
2022-10-07T04:21:42.786Z,3.37
2022-10-07T04:24:12.133Z,3.30
2022-10-07T04:26:39.897Z,3.40
2022-10-07T04:29:07.797Z,3.00
2022-10-07T04:31:37.388Z,3.40
2022-10-07T04:34:06.787Z,3.13
2022-10-07T04:36:39.027Z,3.17
2022-10-07T04:39:16.909Z,3.43
2022-10-07T04:41:54.674Z,3.70
2022-10-07T04:44:26.620Z,3.73
2022-10-07T04:47:00.166Z,3.30
2022-10-07T04:49:30.663Z,5.37
2022-10-07T04:52:00.558Z,6.03
2022-10-07T04:54:34.328Z,5.70
2022-10-07T04:57:02.254Z,6.50
2022-10-07T04:59:30.729Z,7.10
2022-10-07T05:01:59.688Z,8.17
2022-10-07T05:04:29.908Z,8.13
2022-10-07T05:06:59.409Z,8.63
2022-10-07T05:09:27.527Z,9.10
2022-10-07T05:11:56.724Z,8.50
2022-10-07T05:14:24.709Z,9.20
2022-10-07T05:16:54.020Z,8.80
2022-10-07T05:19:25.864Z,9.47
2022-10-07T05:21:54.662Z,10.40
2022-10-07T05:24:22.677Z,9.40
2022-10-07T05:26:51.680Z,10.73
2022-10-07T05:29:20.838Z,11.13
2022-10-07T05:31:52.388Z,10.13
2022-10-07T05:34:23.777Z,10.20
2022-10-07T05:36:53.217Z,10.40
2022-10-07T05:39:24.797Z,10.40
2022-10-07T05:42:01.841Z,10.73
2022-10-07T05:44:38.221Z,12.10
2022-10-07T05:47:10.009Z,11.83
2022-10-07T05:49:37.857Z,11.40
2022-10-07T05:52:07.707Z,11.20
2022-10-07T05:54:35.904Z,11.63
2022-10-07T05:57:04.373Z,11.30
2022-10-07T05:59:32.533Z,12.90
2022-10-07T06:02:04.580Z,12.30
2022-10-07T06:04:33.761Z,12.70
2022-10-07T06:07:04.188Z,12.30
2022-10-07T06:09:49.792Z,12.37
2022-10-07T06:12:36.288Z,12.00
2022-10-07T06:15:10.699Z,11.33
2022-10-07T06:17:46.512Z,13.90
2022-10-07T06:20:18.083Z,13.03
2022-10-07T06:22:47.056Z,12.07
2022-10-07T06:25:16.644Z,12.90
2022-10-07T06:27:49.724Z,11.53
2022-10-07T06:30:21.032Z,13.80
2022-10-07T06:32:51.105Z,14.23
2022-10-07T06:35:19.367Z,12.83
2022-10-07T06:37:48.827Z,12.37
2022-10-07T06:40:17.237Z,11.40
2022-10-07T06:42:45.263Z,12.07
2022-10-07T06:45:39.754Z,10.90
2022-10-07T06:48:09.370Z,11.93
2022-10-07T06:50:40.326Z,13.20
2022-10-07T06:53:08.241Z,14.60
2022-10-07T06:55:38.058Z,13.77
2022-10-07T06:58:11.398Z,9.70
2022-10-07T07:00:41.026Z,10.10
2022-10-07T07:03:12.248Z,9.67
2022-10-07T07:05:44.613Z,10.30
2022-10-07T07:08:17.309Z,11.20
2022-10-07T07:10:46.316Z,10.40
2022-10-07T07:13:14.449Z,11.40
2022-10-07T07:15:57.854Z,10.27
2022-10-07T07:18:28.152Z,12.73
2022-10-07T07:20:56.112Z,10.37
2022-10-07T07:23:24.599Z,12.20
2022-10-07T07:25:52.995Z,12.33
2022-10-07T07:28:22.746Z,11.83
2022-10-07T07:30:50.945Z,13.03
2022-10-07T07:33:18.863Z,11.83
2022-10-07T07:35:48.017Z,12.37
2022-10-07T07:38:15.879Z,11.47
2022-10-07T07:40:44.789Z,11.53
2022-10-07T07:43:13.833Z,12.33
2022-10-07T07:45:41.914Z,11.33
2022-10-07T07:48:10.365Z,11.53
2022-10-07T07:50:41.087Z,11.57
2022-10-07T07:53:10.669Z,12.17
2022-10-07T07:55:38.671Z,11.60
2022-10-07T07:58:11.692Z,14.00
2022-10-07T08:00:40.403Z,17.23
2022-10-07T08:03:08.551Z,14.50
2022-10-07T08:05:36.406Z,12.57
2022-10-07T08:08:05.019Z,13.00
2022-10-07T08:10:34.457Z,12.77
2022-10-07T08:13:02.289Z,11.27
2022-10-07T08:15:30.529Z,12.53
2022-10-07T08:17:58.945Z,12.47
2022-10-07T08:20:26.745Z,12.10
2022-10-07T08:22:58.935Z,13.80
2022-10-07T08:25:29.526Z,14.37
2022-10-07T08:28:01.307Z,12.50
2022-10-07T08:30:29.679Z,13.57
2022-10-07T08:33:01.167Z,12.93
2022-10-07T08:35:29.448Z,14.03
2022-10-07T08:37:57.237Z,14.50
2022-10-07T08:40:25.179Z,13.90
2022-10-07T08:42:54.187Z,14.00
2022-10-07T08:45:32.441Z,16.70
2022-10-07T08:48:04.797Z,15.90
2022-10-07T08:50:49.056Z,14.20
2022-10-07T08:53:21.045Z,12.97
2022-10-07T08:55:53.872Z,12.73
2022-10-07T08:58:43.274Z,14.53
2022-10-07T09:01:31.023Z,15.63
2022-10-07T09:04:10.524Z,15.80
2022-10-07T09:06:42.312Z,15.70
2022-10-07T09:09:17.017Z,15.80
2022-10-07T09:11:48.606Z,15.20
2022-10-07T09:14:26.320Z,16.47
2022-10-07T09:16:59.932Z,15.97
2022-10-07T09:19:39.550Z,15.77
2022-10-07T09:22:13.056Z,15.17
2022-10-07T09:24:40.981Z,16.03
2022-10-07T09:27:14.595Z,16.00
2022-10-07T09:29:42.669Z,15.70
2022-10-07T09:32:13.965Z,15.63
2022-10-07T09:34:42.528Z,15.13
2022-10-07T09:37:16.310Z,15.67
2022-10-07T09:39:45.921Z,17.17
2022-10-07T09:42:35.048Z,15.00
2022-10-07T09:45:07.142Z,15.17
2022-10-07T09:47:40.446Z,14.73
2022-10-07T09:50:34.513Z,13.93
2022-10-07T09:53:03.027Z,13.70
2022-10-07T09:55:37.648Z,12.17
2022-10-07T09:58:07.235Z,13.13
2022-10-07T10:00:43.858Z,13.20
2022-10-07T10:03:14.142Z,13.30
2022-10-07T10:05:53.673Z,12.73
2022-10-07T10:08:26.650Z,13.00
2022-10-07T10:10:56.720Z,13.53
2022-10-07T10:13:28.115Z,13.10
2022-10-07T10:15:57.166Z,13.20
2022-10-07T10:18:34.636Z,13.33
2022-10-07T10:21:27.423Z,12.47
2022-10-07T10:23:57.974Z,13.00
2022-10-07T10:26:56.064Z,11.83
2022-10-07T10:29:34.561Z,11.23
2022-10-07T10:32:22.953Z,11.47
2022-10-07T10:34:59.838Z,11.70
2022-10-07T10:37:50.715Z,11.77
2022-10-07T10:40:27.045Z,11.27
2022-10-07T10:43:02.435Z,11.73
2022-10-07T10:45:36.727Z,12.03
2022-10-07T10:48:24.314Z,11.83
2022-10-07T10:51:01.171Z,11.70
2022-10-07T10:53:39.489Z,12.00
2022-10-07T10:56:20.926Z,10.57
2022-10-07T10:59:01.929Z,11.13
2022-10-07T11:01:36.587Z,12.87
2022-10-07T11:04:22.159Z,11.30
2022-10-07T11:06:56.268Z,10.37
2022-10-07T11:09:32.260Z,12.47
2022-10-07T11:12:04.952Z,11.20
2022-10-07T11:14:37.813Z,11.30
2022-10-07T11:17:08.631Z,11.23
2022-10-07T11:19:41.336Z,11.13
2022-10-07T11:22:16.275Z,10.57
2022-10-07T11:24:47.386Z,11.00
2022-10-07T11:27:20.115Z,10.03
2022-10-07T11:29:53.477Z,11.47
2022-10-07T11:32:29.181Z,11.27
2022-10-07T11:35:04.829Z,10.53
2022-10-07T11:37:39.457Z,10.27
2022-10-07T11:40:09.680Z,10.70
2022-10-07T11:42:43.060Z,9.67
2022-10-07T11:45:17.721Z,10.40
2022-10-07T11:47:49.861Z,10.50
2022-10-07T11:50:21.338Z,10.70
2022-10-07T11:52:53.790Z,9.80
2022-10-07T11:55:26.035Z,9.07
2022-10-07T11:57:56.725Z,9.13
2022-10-07T12:00:27.360Z,9.90
2022-10-07T12:02:56.240Z,9.90
2022-10-07T12:06:03.735Z,9.33
2022-10-07T12:08:35.558Z,8.60
2022-10-07T12:11:42.028Z,8.53
2022-10-07T12:14:32.233Z,8.73
2022-10-07T12:17:11.940Z,8.83
2022-10-07T12:19:39.716Z,8.50
2022-10-07T12:22:18.925Z,8.47
2022-10-07T12:25:28.164Z,8.67
2022-10-07T12:27:57.084Z,8.90
2022-10-07T12:30:49.973Z,9.00
2022-10-07T12:33:28.918Z,8.17
2022-10-07T12:35:56.758Z,8.60
2022-10-07T12:38:27.130Z,8.37
2022-10-07T12:41:18.005Z,7.87
2022-10-07T12:43:51.462Z,8.10
2022-10-07T12:46:22.026Z,7.80
2022-10-07T12:48:58.190Z,7.77
2022-10-07T12:51:29.633Z,8.10
2022-10-07T12:54:00.340Z,8.10
2022-10-07T12:56:31.294Z,7.53
2022-10-07T12:59:50.334Z,8.13
2022-10-07T13:02:50.199Z,7.33
2022-10-07T13:05:56.067Z,8.30
2022-10-07T13:09:02.855Z,8.50
2022-10-07T13:12:06.754Z,7.77
2022-10-07T13:14:42.079Z,7.97
2022-10-07T13:17:24.980Z,8.20
2022-10-07T13:20:02.849Z,7.53
2022-10-07T13:22:31.773Z,8.23
2022-10-07T13:25:02.357Z,9.30
2022-10-07T13:27:34.505Z,8.60
2022-10-07T13:30:04.736Z,8.93
2022-10-07T13:32:34.372Z,8.30
2022-10-07T13:35:29.631Z,8.83
2022-10-07T13:37:57.531Z,8.57
2022-10-07T13:40:28.435Z,9.20
2022-10-07T13:43:00.497Z,10.30
2022-10-07T13:45:28.839Z,9.80
2022-10-07T13:47:57.626Z,9.77
2022-10-07T13:50:29.118Z,9.73
2022-10-07T13:52:58.481Z,9.00
2022-10-07T13:55:29.412Z,9.47
2022-10-07T13:58:01.887Z,10.47
2022-10-07T14:00:30.799Z,10.53
2022-10-07T14:02:58.867Z,9.13
2022-10-07T14:05:29.294Z,10.13
2022-10-07T14:07:59.377Z,10.07
2022-10-07T14:10:32.202Z,9.80
2022-10-07T14:13:04.193Z,10.40
2022-10-07T14:15:38.072Z,10.23
2022-10-07T14:18:09.714Z,10.57
2022-10-07T14:20:40.654Z,10.53
2022-10-07T14:23:18.175Z,9.40
2022-10-07T14:25:54.173Z,9.07
2022-10-07T14:28:30.202Z,8.37
2022-10-07T14:31:39.305Z,9.10
2022-10-07T14:34:31.783Z,8.93
2022-10-07T14:37:04.567Z,8.30
2022-10-07T14:39:35.359Z,8.40
2022-10-07T14:42:03.607Z,9.27
2022-10-07T14:44:33.322Z,9.00
2022-10-07T14:47:06.769Z,8.10
2022-10-07T14:49:34.509Z,9.30
2022-10-07T14:52:03.736Z,8.63
2022-10-07T14:54:32.025Z,7.77
2022-10-07T14:56:59.805Z,8.37
2022-10-07T14:59:30.087Z,7.63
2022-10-07T15:01:59.230Z,8.43
2022-10-07T15:04:27.986Z,8.40
2022-10-07T15:06:55.874Z,8.10
2022-10-07T15:09:23.676Z,8.40
2022-10-07T15:11:51.571Z,8.50
2022-10-07T15:14:19.383Z,7.93
2022-10-07T15:16:47.214Z,8.60
2022-10-07T15:19:16.439Z,8.53
2022-10-07T15:21:44.394Z,7.93
2022-10-07T15:24:20.309Z,7.87
2022-10-07T15:26:48.147Z,8.03
2022-10-07T15:29:16.877Z,7.27
2022-10-07T15:31:44.651Z,7.60
2022-10-07T15:34:13.953Z,6.77
2022-10-07T15:36:43.333Z,7.60
2022-10-07T15:39:11.568Z,7.57
2022-10-07T15:41:41.511Z,6.83
2022-10-07T15:44:16.217Z,7.03
2022-10-07T15:46:44.452Z,7.60
2022-10-07T15:49:12.378Z,6.87
2022-10-07T15:51:40.841Z,6.80
2022-10-07T15:54:11.599Z,7.67
2022-10-07T15:56:39.460Z,6.67
2022-10-07T15:59:07.363Z,7.70
2022-10-07T16:01:35.358Z,8.97
2022-10-07T16:04:04.145Z,8.07
2022-10-07T16:06:33.829Z,8.30
2022-10-07T16:09:02.499Z,8.53
2022-10-07T16:11:33.999Z,9.57
2022-10-07T16:14:02.911Z,9.70
2022-10-07T16:16:32.710Z,8.97
2022-10-07T16:19:01.886Z,9.20
2022-10-07T16:21:31.624Z,8.93
2022-10-07T16:24:02.164Z,8.90
2022-10-07T16:26:33.784Z,8.73
2022-10-07T16:29:20.826Z,9.37
2022-10-07T16:31:54.537Z,8.80
2022-10-07T16:34:25.570Z,8.63
2022-10-07T16:36:53.454Z,8.20
2022-10-07T16:39:21.990Z,8.83
2022-10-07T16:41:52.417Z,9.20
2022-10-07T16:44:21.048Z,9.10
2022-10-07T16:46:49.299Z,9.57
2022-10-07T16:49:18.961Z,10.30
2022-10-07T16:51:46.995Z,9.30
2022-10-07T16:54:16.496Z,9.77
2022-10-07T16:56:46.879Z,10.83
2022-10-07T16:59:22.650Z,10.87
2022-10-07T17:01:52.006Z,10.67
2022-10-07T17:04:20.133Z,10.20
2022-10-07T17:06:48.434Z,10.00
2022-10-07T17:09:17.820Z,9.37
2022-10-07T17:11:46.512Z,10.20
2022-10-07T17:14:17.300Z,9.93
2022-10-07T17:16:46.818Z,9.63
2022-10-07T17:19:17.454Z,10.47
2022-10-07T17:21:47.889Z,9.83
2022-10-07T17:24:17.287Z,11.60
2022-10-07T17:26:45.843Z,11.67
2022-10-07T17:29:18.081Z,11.87
2022-10-07T17:31:48.297Z,10.87
2022-10-07T17:34:17.024Z,12.03
2022-10-07T17:36:44.848Z,13.17
2022-10-07T17:39:13.184Z,12.80
2022-10-07T17:41:41.248Z,13.67
2022-10-07T17:44:12.125Z,14.37
2022-10-07T17:46:42.495Z,13.50
2022-10-07T17:49:16.215Z,15.23
2022-10-07T17:51:44.271Z,13.53
2022-10-07T17:54:14.148Z,14.90
2022-10-07T17:56:47.561Z,15.53
2022-10-07T17:59:15.919Z,14.53
2022-10-07T18:01:45.459Z,15.10
2022-10-07T18:04:17.965Z,14.63
2022-10-07T18:06:49.066Z,14.67
2022-10-07T18:09:19.445Z,13.53
2022-10-07T18:12:05.277Z,13.97
2022-10-07T18:14:53.737Z,13.20
2022-10-07T18:17:24.737Z,13.90
2022-10-07T18:19:53.200Z,14.27
2022-10-07T18:22:21.330Z,12.67
2022-10-07T18:24:49.882Z,12.27
2022-10-07T18:27:18.015Z,11.63
2022-10-07T18:29:46.013Z,11.23
2022-10-07T18:32:13.975Z,11.83
2022-10-07T18:34:43.341Z,12.10
2022-10-07T18:37:11.376Z,11.53
2022-10-07T18:39:41.122Z,11.83
2022-10-07T18:42:09.196Z,12.33
2022-10-07T18:44:37.093Z,14.20
2022-10-07T18:47:05.183Z,13.10
2022-10-07T18:49:33.266Z,12.47
2022-10-07T18:52:02.612Z,12.07
2022-10-07T18:54:30.895Z,11.67
2022-10-07T18:56:58.997Z,11.73
2022-10-07T18:59:26.996Z,11.70
2022-10-07T19:01:55.083Z,11.90
2022-10-07T19:04:23.138Z,11.43
2022-10-07T19:06:51.030Z,11.47
2022-10-07T19:09:22.639Z,10.97
2022-10-07T19:11:51.000Z,11.63
2022-10-07T19:14:17.999Z,11.50
2022-10-07T19:16:49.066Z,11.23
2022-10-07T19:19:19.998Z,10.67
2022-10-07T19:21:50.591Z,10.87
2022-10-07T19:24:20.451Z,10.83
2022-10-07T19:26:51.459Z,11.63
2022-10-07T19:29:19.624Z,10.83
2022-10-07T19:31:50.006Z,11.37
2022-10-07T19:34:21.075Z,10.43
2022-10-07T19:36:49.954Z,10.23
2022-10-07T19:39:21.367Z,9.20
2022-10-07T19:41:51.045Z,9.80
2022-10-07T19:44:19.644Z,9.67
2022-10-07T19:46:51.322Z,9.60
2022-10-07T19:49:19.638Z,9.20
2022-10-07T19:51:47.439Z,9.60
2022-10-07T19:54:15.372Z,9.47
2022-10-07T19:56:45.197Z,9.53
2022-10-07T19:59:15.122Z,9.80
2022-10-07T20:01:44.320Z,10.07
2022-10-07T20:04:14.096Z,10.63
2022-10-07T20:06:42.393Z,10.00
2022-10-07T20:09:12.876Z,10.30
2022-10-07T20:11:40.724Z,10.50
2022-10-07T20:14:10.287Z,10.17
2022-10-07T20:16:39.477Z,10.37
2022-10-07T20:19:09.448Z,10.70
2022-10-07T20:21:39.266Z,11.07
2022-10-07T20:24:08.364Z,10.80
2022-10-07T20:26:38.363Z,10.57
2022-10-07T20:29:10.015Z,10.40
2022-10-07T20:31:41.585Z,10.13
2022-10-07T20:34:14.398Z,9.90
2022-10-07T20:36:42.275Z,9.77
2022-10-07T20:39:33.455Z,9.87
2022-10-07T20:42:20.072Z,10.50
2022-10-07T20:44:49.194Z,10.33
2022-10-07T20:47:19.696Z,12.50
2022-10-07T20:49:48.764Z,10.50
2022-10-07T20:52:19.655Z,11.03
2022-10-07T20:54:48.311Z,11.70
2022-10-07T20:57:18.377Z,11.33
2022-10-07T20:59:46.417Z,11.90
2022-10-07T21:02:15.538Z,11.47
2022-10-07T21:04:46.945Z,11.53
2022-10-07T21:07:16.184Z,14.67
2022-10-07T21:09:44.399Z,15.73
2022-10-07T21:12:15.566Z,15.00
2022-10-07T21:14:44.307Z,14.73
2022-10-07T21:17:13.072Z,15.53
2022-10-07T21:19:41.652Z,15.60
2022-10-07T21:22:10.954Z,16.27
2022-10-07T21:24:38.940Z,15.73
2022-10-07T21:27:08.571Z,16.40
2022-10-07T21:29:40.803Z,17.33
2022-10-07T21:32:09.381Z,16.33
2022-10-07T21:34:37.373Z,16.83
2022-10-07T21:37:05.585Z,16.80
2022-10-07T21:39:35.338Z,18.37
2022-10-07T21:42:03.502Z,16.90
2022-10-07T21:44:33.316Z,16.10
2022-10-07T21:47:01.335Z,15.93
2022-10-07T21:49:29.239Z,14.63
2022-10-07T21:51:57.176Z,13.93
2022-10-07T21:54:26.108Z,12.47
2022-10-07T21:56:55.337Z,12.20
2022-10-07T21:59:23.378Z,12.97
2022-10-07T22:01:51.362Z,12.10
2022-10-07T22:04:20.147Z,12.23
2022-10-07T22:07:05.475Z,10.80
2022-10-07T22:09:33.437Z,10.30
2022-10-07T22:12:02.745Z,10.27
2022-10-07T22:14:30.575Z,10.97
2022-10-07T22:16:58.399Z,10.57
2022-10-07T22:19:26.374Z,10.93
2022-10-07T22:21:54.181Z,11.23
2022-10-07T22:24:23.560Z,10.80
2022-10-07T22:26:52.015Z,11.73
2022-10-07T22:29:22.902Z,12.13
2022-10-07T22:31:51.161Z,11.57
2022-10-07T22:34:36.739Z,12.20
2022-10-07T22:37:05.392Z,10.37
2022-10-07T22:39:33.379Z,10.00
2022-10-07T22:42:03.639Z,9.17
2022-10-07T22:44:32.870Z,8.27
2022-10-07T22:47:01.455Z,7.53
2022-10-07T22:49:30.465Z,7.10
2022-10-07T22:51:59.773Z,7.20
2022-10-07T22:54:28.424Z,7.13
2022-10-07T22:56:56.476Z,7.50
2022-10-07T22:59:24.257Z,7.00
2022-10-07T23:01:53.540Z,6.77
2022-10-07T23:04:21.712Z,6.73
2022-10-07T23:06:49.710Z,6.83
2022-10-07T23:09:17.561Z,6.80
2022-10-07T23:11:45.680Z,6.63
2022-10-07T23:14:13.569Z,6.60
2022-10-07T23:16:41.911Z,6.60
2022-10-07T23:19:11.501Z,6.80
2022-10-07T23:21:39.569Z,7.03
2022-10-07T23:24:08.448Z,6.77
2022-10-07T23:26:37.552Z,6.63
2022-10-07T23:29:07.495Z,6.50
2022-10-07T23:31:35.648Z,7.10
2022-10-07T23:34:03.978Z,6.43
2022-10-07T23:36:34.857Z,6.70
2022-10-07T23:39:03.242Z,6.27
2022-10-07T23:41:32.457Z,7.13
2022-10-07T23:44:03.038Z,6.83
2022-10-07T23:46:33.898Z,6.30
2022-10-07T23:49:02.759Z,6.53
2022-10-07T23:51:32.439Z,6.80
2022-10-07T23:54:03.442Z,7.40
2022-10-07T23:56:32.181Z,6.90
2022-10-07T23:59:00.580Z,8.53
